Time;durP1;ratioP1;P1;durP2;ratioP2;P2;SDS_P1;SDS_P2;PMS_P1;PMS_P2;Temp;Humidity;BMP_temperature;BMP_pressure;BME280_temperature;BME280_humidity;BME280_pressure;Samples;Min_cycle;Max_cycle;Signal;HPM_P1;HPM_P2
2023/03/17 00:02:20;;;;;;;7.93;3.25;;;;;;;9.29;38.09;101455.47;5079362;27;97115;-79
2023/03/17 00:04:47;;;;;;;6.03;2.47;;;;;;;9.29;38.01;101455.47;5085743;27;96811;-78
2023/03/17 00:07:17;;;;;;;9.98;2.90;;;;;;;9.15;38.75;101445.19;5089963;27;101265;-79
2023/03/17 00:09:43;;;;;;;5.60;2.55;;;;;;;8.96;38.69;101442.00;5081808;27;96845;-78
2023/03/17 00:12:11;;;;;;;7.45;2.80;;;;;;;9.02;38.64;101438.38;5078871;27;97434;-78
2023/03/17 00:14:38;;;;;;;8.02;2.78;;;;;;;9.22;38.46;101438.03;5082166;27;96798;-79
2023/03/17 00:17:05;;;;;;;8.25;3.22;;;;;;;9.18;38.26;101434.59;5080464;27;98902;-78
2023/03/17 00:19:35;;;;;;;8.05;3.03;;;;;;;9.32;38.18;101426.41;5082414;27;98642;-78
2023/03/17 00:22:05;;;;;;;10.35;3.10;;;;;;;9.46;37.87;101425.22;5082224;27;96784;-79
2023/03/17 00:24:32;;;;;;;4.95;2.47;;;;;;;9.12;38.19;101435.53;5084680;27;97137;-78
2023/03/17 00:26:59;;;;;;;7.68;2.95;;;;;;;9.12;38.51;101435.53;5092043;27;99148;-79
2023/03/17 00:29:25;;;;;;;7.80;2.92;;;;;;;9.35;38.14;101431.63;5082189;27;98913;-78
2023/03/17 00:31:53;;;;;;;7.25;3.03;;;;;;;9.26;38.22;101430.00;5081847;27;96798;-79
2023/03/17 00:34:20;;;;;;;9.15;2.83;;;;;;;9.07;38.70;101428.63;5085692;27;96781;-79
2023/03/17 00:36:48;;;;;;;11.35;3.08;;;;;;;8.92;38.78;101416.63;5074705;27;99397;-77
2023/03/17 00:39:17;;;;;;;6.60;3.20;;;;;;;9.01;38.94;101415.56;5085358;27;98073;-77
2023/03/17 00:41:44;;;;;;;10.55;3.20;;;;;;;9.09;38.66;101417.16;5087169;27;96787;-77
2023/03/17 00:44:10;;;;;;;9.57;3.28;;;;;;;9.20;38.59;101407.28;5088276;27;97999;-77
2023/03/17 00:46:40;;;;;;;10.32;3.20;;;;;;;9.16;38.46;101402.09;5087189;27;99553;-77
2023/03/17 00:49:15;;;;;;;10.40;2.85;;;;;;;9.33;38.10;101393.84;5091250;27;99323;-77
2023/03/17 00:51:42;;;;;;;6.47;3.33;;;;;;;9.39;38.14;101386.66;5089779;27;96972;-77
2023/03/17 00:54:10;;;;;;;9.38;3.10;;;;;;;9.46;37.87;101385.66;5092243;27;96847;-77
2023/03/17 00:56:39;;;;;;;7.15;2.90;;;;;;;9.28;38.36;101380.75;5084530;27;98772;-79
2023/03/17 00:59:19;;;;;;;8.70;3.10;;;;;;;9.30;38.22;101367.53;5080324;27;99117;-78
2023/03/17 01:01:46;;;;;;;8.05;3.28;;;;;;;9.45;38.16;101375.16;5082685;27;98806;-77
2023/03/17 01:04:13;;;;;;;8.23;3.10;;;;;;;9.41;37.79;101357.63;5087716;27;96889;-77
2023/03/17 01:06:39;;;;;;;9.70;3.30;;;;;;;9.30;38.03;101365.78;5094382;27;99294;-77
2023/03/17 01:09:07;;;;;;;13.00;3.58;;;;;;;8.99;38.41;101373.41;5087416;27;99974;-78
2023/03/17 01:11:33;;;;;;;9.00;3.17;;;;;;;9.12;38.45;101371.44;5082792;27;97344;-78
2023/03/17 01:14:02;;;;;;;11.30;3.50;;;;;;;9.36;38.36;101365.66;5081274;27;96817;-78
2023/03/17 01:16:28;;;;;;;8.57;3.10;;;;;;;9.39;38.02;101362.06;5081394;27;98971;-78
2023/03/17 01:18:55;;;;;;;8.35;3.40;;;;;;;9.26;38.49;101363.22;5081182;27;98008;-78
2023/03/17 01:21:22;;;;;;;6.00;3.30;;;;;;;9.11;38.71;101357.38;5081835;27;98031;-78
2023/03/17 01:23:49;;;;;;;7.38;3.30;;;;;;;9.13;38.82;101352.03;5083510;27;97168;-78
2023/03/17 01:26:16;;;;;;;9.10;3.83;;;;;;;8.96;39.01;101349.75;5086003;27;101981;-78
2023/03/17 01:28:42;;;;;;;8.57;3.58;;;;;;;8.78;39.43;101350.97;5084827;27;98905;-80
2023/03/17 01:31:11;;;;;;;7.55;3.33;;;;;;;8.76;39.44;101349.25;5080382;27;97250;-78
2023/03/17 01:33:37;;;;;;;10.40;3.10;;;;;;;8.76;39.67;101338.72;5092803;27;98828;-78
2023/03/17 01:36:04;;;;;;;8.80;4.13;;;;;;;8.92;39.33;101341.94;5077198;27;98926;-76
2023/03/17 01:38:31;;;;;;;9.38;3.50;;;;;;;8.79;39.57;101333.41;5083137;27;97601;-78
2023/03/17 01:40:57;;;;;;;8.93;3.60;;;;;;;8.82;39.73;101325.44;5084626;27;97164;-77
2023/03/17 01:43:26;;;;;;;7.53;4.00;;;;;;;8.99;39.27;101323.31;5091039;27;97227;-77
2023/03/17 01:46:26;;;;;;;8.98;3.40;;;;;;;9.04;39.48;101324.13;5080186;27;97138;-78
2023/03/17 01:49:13;;;;;;;10.23;3.67;;;;;;;9.23;38.95;101316.69;5044933;27;98776;-79
2023/03/17 01:51:48;;;;;;;10.05;3.50;;;;;;;9.04;39.55;101308.31;5084115;27;97200;-78
2023/03/17 01:54:18;;;;;;;10.27;3.65;;;;;;;9.17;38.98;101317.69;5084817;27;98352;-77
2023/03/17 01:56:48;;;;;;;9.90;3.70;;;;;;;9.08;39.47;101307.31;5084857;27;98794;-77
2023/03/17 01:59:21;;;;;;;7.80;3.83;;;;;;;9.05;39.33;101312.69;5085691;27;99639;-78
2023/03/17 02:01:52;;;;;;;9.38;3.97;;;;;;;8.91;39.68;101308.56;5081900;27;96986;-78
2023/03/17 02:04:20;;;;;;;9.50;4.32;;;;;;;9.01;39.55;101316.25;5083761;27;96980;-77
2023/03/17 02:06:49;;;;;;;10.90;3.88;;;;;;;9.06;39.73;101311.75;5088288;27;98923;-77
2023/03/17 02:09:16;;;;;;;8.85;4.28;;;;;;;9.00;39.67;101303.97;5088467;27;98976;-78
2023/03/17 02:11:42;;;;;;;8.25;3.63;;;;;;;9.02;39.55;101299.53;5080418;27;97445;-77
2023/03/17 02:14:09;;;;;;;10.55;4.28;;;;;;;9.02;39.59;101299.53;5085975;27;96768;-78
2023/03/17 02:16:36;;;;;;;11.18;4.40;;;;;;;8.85;40.23;101288.50;5085296;27;99192;-78
2023/03/17 02:19:03;;;;;;;10.82;3.88;;;;;;;8.86;40.41;101289.34;5097628;27;99064;-77
2023/03/17 02:21:37;;;;;;;14.25;4.43;;;;;;;9.04;39.92;101294.25;5093748;27;96812;-76
2023/03/17 02:24:07;;;;;;;9.98;4.20;;;;;;;8.90;40.06;101296.28;5088239;27;96751;-77
2023/03/17 02:26:36;;;;;;;11.13;4.32;;;;;;;8.99;39.90;101296.13;5098998;27;100737;-78
2023/03/17 02:29:02;;;;;;;11.73;3.95;;;;;;;9.12;39.90;101303.72;5095560;27;97772;-77
2023/03/17 02:31:29;;;;;;;12.95;4.35;;;;;;;9.06;39.51;101288.03;5088925;27;97723;-77
2023/03/17 02:33:56;;;;;;;12.50;4.07;;;;;;;9.17;39.87;101285.19;5098534;27;96874;-76
2023/03/17 02:36:22;;;;;;;10.15;4.45;;;;;;;9.10;39.77;101287.09;5093963;27;99265;-77
2023/03/17 02:38:51;;;;;;;12.57;4.05;;;;;;;8.91;39.77;101280.47;5098298;27;97858;-77
2023/03/17 02:41:17;;;;;;;9.35;4.15;;;;;;;8.94;39.82;101288.28;5084529;27;97806;-77
2023/03/17 02:43:43;;;;;;;10.85;3.88;;;;;;;8.96;39.85;101269.81;5095073;27;96732;-76
2023/03/17 02:46:10;;;;;;;10.48;4.22;;;;;;;8.85;40.02;101272.69;5094413;27;99306;-79
2023/03/17 02:48:38;;;;;;;9.30;4.50;;;;;;;8.78;40.31;101271.06;5092731;27;98894;-78
2023/03/17 02:51:05;;;;;;;9.50;3.70;;;;;;;8.80;40.20;101269.25;5086772;27;96630;-77
2023/03/17 02:53:31;;;;;;;8.77;3.92;;;;;;;9.11;39.64;101270.38;5084144;27;96764;-77
2023/03/17 02:55:59;;;;;;;10.38;4.45;;;;;;;8.97;39.75;101275.06;5089525;27;99794;-77
2023/03/17 02:58:25;;;;;;;9.70;4.20;;;;;;;9.09;39.79;101266.88;5083053;27;98771;-76
2023/03/17 03:00:52;;;;;;;9.75;4.20;;;;;;;8.51;40.49;101271.59;5080812;27;97220;-77
2023/03/17 03:03:19;;;;;;;8.88;4.28;;;;;;;8.72;40.41;101269.41;5087718;27;96899;-77
2023/03/17 03:05:46;;;;;;;11.50;3.80;;;;;;;9.11;39.77;101257.19;5082518;27;99242;-77
2023/03/17 03:08:12;;;;;;;9.45;4.15;;;;;;;9.26;39.42;101260.38;5077683;27;99353;-77
2023/03/17 03:10:38;;;;;;;7.97;3.75;;;;;;;9.23;39.06;101257.81;5076823;27;96817;-77
2023/03/17 03:13:06;;;;;;;11.13;4.53;;;;;;;8.96;39.61;101275.94;5079978;27;97463;-78
2023/03/17 03:15:33;;;;;;;8.07;3.83;;;;;;;9.06;39.45;101279.25;5089042;27;100018;-77
2023/03/17 03:17:59;;;;;;;12.55;4.75;;;;;;;8.93;39.33;101281.28;5076794;27;98875;-78
2023/03/17 03:20:25;;;;;;;8.35;4.35;;;;;;;8.90;39.68;101281.34;5083307;27;96765;-77
2023/03/17 03:22:52;;;;;;;8.50;4.03;;;;;;;9.09;38.99;101276.56;5089592;27;96882;-78
2023/03/17 03:25:18;;;;;;;15.88;4.18;;;;;;;9.03;39.05;101288.09;5083009;27;98935;-78
2023/03/17 03:27:45;;;;;;;10.48;4.28;;;;;;;8.98;39.28;101295.25;5080254;27;97797;-77
2023/03/17 03:30:13;;;;;;;10.65;4.13;;;;;;;9.11;39.30;101296.75;5095934;27;97466;-76
2023/03/17 03:32:40;;;;;;;11.27;4.60;;;;;;;8.91;39.55;101288.38;5079427;27;96848;-77
2023/03/17 03:35:08;;;;;;;9.70;4.47;;;;;;;9.05;39.34;101288.09;5088691;27;99616;-78
2023/03/17 03:37:34;;;;;;;14.45;4.47;;;;;;;8.96;39.47;101286.50;5075909;27;99307;-77
2023/03/17 03:40:01;;;;;;;10.50;4.28;;;;;;;8.83;39.88;101285.00;5080458;27;96729;-77
2023/03/17 03:42:27;;;;;;;11.05;4.03;;;;;;;9.16;39.16;101276.41;5073856;27;97839;-77
2023/03/17 03:44:54;;;;;;;10.30;3.95;;;;;;;8.95;39.49;101282.13;5077842;27;98820;-78
2023/03/17 03:47:22;;;;;;;8.40;3.90;;;;;;;8.95;39.46;101284.75;5077406;27;100476;-78
2023/03/17 03:49:48;;;;;;;8.70;4.13;;;;;;;8.94;39.27;101292.69;5078028;27;98777;-79
2023/03/17 03:52:15;;;;;;;7.65;3.97;;;;;;;8.82;39.52;101285.03;5077338;27;97315;-77
2023/03/17 03:54:41;;;;;;;8.07;4.00;;;;;;;9.09;39.28;101281.84;5091846;27;99016;-77
2023/03/17 03:57:08;;;;;;;9.23;4.20;;;;;;;9.27;38.83;101293.75;5090088;27;99074;-78
2023/03/17 03:59:34;;;;;;;8.45;3.83;;;;;;;9.03;39.19;101288.09;5085932;27;97183;-78
2023/03/17 04:02:00;;;;;;;12.10;5.13;;;;;;;9.12;39.13;101282.63;5086276;27;98580;-77
2023/03/17 04:04:29;;;;;;;10.60;4.00;;;;;;;9.07;39.15;101283.63;5089093;27;99368;-78
2023/03/17 04:06:55;;;;;;;12.15;4.63;;;;;;;8.83;39.42;101279.72;5083043;27;98876;-76
2023/03/17 04:09:22;;;;;;;8.70;4.20;;;;;;;9.02;39.14;101283.72;5083380;27;97255;-77
2023/03/17 04:11:48;;;;;;;8.02;4.03;;;;;;;8.99;39.26;101275.88;5087376;27;97544;-77
2023/03/17 04:14:15;;;;;;;14.52;4.55;;;;;;;8.76;39.61;101271.09;5089789;27;99400;-76
2023/03/17 04:16:41;;;;;;;10.32;4.38;;;;;;;9.10;38.90;101267.75;5089110;27;99257;-78
2023/03/17 04:19:07;;;;;;;11.27;4.43;;;;;;;8.96;39.42;101262.78;5078740;27;96992;-78
2023/03/17 04:21:35;;;;;;;8.48;4.43;;;;;;;8.96;39.33;101269.81;5085580;27;97144;-78
2023/03/17 04:24:03;;;;;;;12.85;3.92;;;;;;;8.79;39.20;101257.81;5083066;27;96869;-78
2023/03/17 04:26:29;;;;;;;11.60;4.15;;;;;;;8.68;39.42;101258.94;5088426;27;98797;-78
2023/03/17 04:28:56;;;;;;;9.63;4.40;;;;;;;8.57;39.71;101247.75;5094371;27;97038;-78
2023/03/17 04:31:23;;;;;;;7.65;4.20;;;;;;;8.66;39.83;101239.69;5081923;27;96769;-78
2023/03/17 04:33:49;;;;;;;12.20;4.13;;;;;;;8.74;39.57;101235.09;5084240;27;99008;-77
2023/03/17 04:36:19;;;;;;;9.25;3.85;;;;;;;8.88;38.93;101235.69;5084916;27;98985;-79
2023/03/17 04:38:47;;;;;;;10.25;4.30;;;;;;;8.65;39.59;101237.94;5086884;27;96684;-76
2023/03/17 04:41:13;;;;;;;11.20;4.03;;;;;;;8.59;39.53;101248.59;5090002;27;98556;-77
2023/03/17 04:43:40;;;;;;;9.32;3.80;;;;;;;8.61;39.62;101252.06;5081778;27;98253;-77
2023/03/17 04:46:06;;;;;;;12.18;3.80;;;;;;;8.85;39.12;101250.72;5087917;27;99239;-77
2023/03/17 04:48:33;;;;;;;12.60;4.28;;;;;;;8.78;38.84;101248.22;5081793;27;96799;-77
2023/03/17 04:50:59;;;;;;;13.65;4.43;;;;;;;8.53;39.52;101248.72;5088185;27;97789;-77
2023/03/17 04:53:26;;;;;;;8.60;3.97;;;;;;;8.71;39.30;101249.22;5083241;27;99769;-76
2023/03/17 04:55:53;;;;;;;7.85;3.60;;;;;;;8.95;38.78;101239.06;5098930;27;98750;-77
2023/03/17 04:58:20;;;;;;;10.10;3.65;;;;;;;8.78;39.00;101242.06;5080834;27;97400;-78
2023/03/17 05:00:46;;;;;;;7.82;4.28;;;;;;;8.65;39.26;101235.31;5087339;27;96871;-77
2023/03/17 05:03:13;;;;;;;10.30;4.50;;;;;;;8.84;38.87;101236.69;5076431;27;99379;-78
2023/03/17 05:05:39;;;;;;;9.45;3.78;;;;;;;8.82;38.54;101235.81;5079537;27;97492;-78
2023/03/17 05:08:06;;;;;;;8.52;3.53;;;;;;;8.72;38.90;101240.44;5082326;27;96747;-77
2023/03/17 05:10:32;;;;;;;9.02;4.00;;;;;;;8.79;38.53;101239.38;5083853;27;97269;-77
2023/03/17 05:13:00;;;;;;;7.70;3.67;;;;;;;8.75;38.66;101244.75;5088613;27;98000;-78
2023/03/17 05:15:26;;;;;;;11.77;4.70;;;;;;;8.71;38.84;101219.38;5082658;27;99158;-78
2023/03/17 05:17:53;;;;;;;10.35;4.32;;;;;;;9.00;38.15;101230.16;5084221;27;96680;-78
2023/03/17 05:20:20;;;;;;;10.18;3.88;;;;;;;8.82;38.36;101224.41;5084200;27;98478;-78
2023/03/17 05:22:46;;;;;;;6.97;3.65;;;;;;;8.95;38.22;101233.81;5082650;27;99638;-77
2023/03/17 05:25:12;;;;;;;11.15;3.92;;;;;;;8.89;38.16;101226.03;5080636;27;98757;-78
2023/03/17 05:27:39;;;;;;;10.00;3.63;;;;;;;8.67;38.53;101231.72;5079263;27;97492;-77
2023/03/17 05:30:10;;;;;;;10.25;4.18;;;;;;;8.84;38.12;101230.53;5091627;27;97273;-77
2023/03/17 05:32:36;;;;;;;8.75;3.58;;;;;;;8.77;38.22;101227.16;5080633;27;99912;-77
2023/03/17 05:35:04;;;;;;;13.65;3.88;;;;;;;8.75;38.30;101221.91;5093235;27;99296;-77
2023/03/17 05:37:31;;;;;;;8.60;3.88;;;;;;;8.97;38.14;101230.25;5080937;27;97312;-78
2023/03/17 05:39:58;;;;;;;8.20;3.70;;;;;;;8.99;37.50;101230.22;5084929;27;96764;-78
2023/03/17 05:42:25;;;;;;;9.68;4.32;;;;;;;9.16;37.28;101231.59;5082841;27;98906;-77
2023/03/17 05:44:52;;;;;;;7.90;3.88;;;;;;;9.10;37.34;101231.72;5081196;27;98941;-77
2023/03/17 05:47:20;;;;;;;9.23;3.53;;;;;;;9.08;37.06;101230.00;5041945;27;1151061;-76
2023/03/17 05:49:46;;;;;;;8.65;3.78;;;;;;;9.14;37.19;101232.50;5096373;27;96973;-77
2023/03/17 05:52:13;;;;;;;8.57;3.67;;;;;;;9.07;37.35;101242.31;5086269;27;99040;-78
2023/03/17 05:54:39;;;;;;;11.57;3.97;;;;;;;9.06;37.34;101244.97;5071883;27;98740;-79
2023/03/17 05:57:06;;;;;;;9.38;3.65;;;;;;;9.02;37.37;101238.91;5079051;27;97542;-77
2023/03/17 05:59:33;;;;;;;9.45;3.65;;;;;;;9.19;36.97;101235.91;5089968;27;98624;-79
2023/03/17 06:01:59;;;;;;;7.60;3.80;;;;;;;9.22;36.95;101237.63;5073897;27;101781;-78
2023/03/17 06:04:27;;;;;;;7.65;3.95;;;;;;;9.29;36.84;101236.59;5083497;27;98769;-77
2023/03/17 06:06:53;;;;;;;6.72;3.00;;;;;;;8.80;37.47;101221.81;5074606;27;96789;-78
2023/03/17 06:09:19;;;;;;;9.25;3.47;;;;;;;8.91;37.24;101225.09;5084004;27;96849;-77
2023/03/17 06:11:46;;;;;;;9.32;3.90;;;;;;;8.99;36.80;101204.69;5078743;27;99004;-77
2023/03/17 06:14:13;;;;;;;7.80;3.55;;;;;;;8.77;37.54;101211.34;5086505;27;99341;-77
2023/03/17 06:16:40;;;;;;;10.23;3.83;;;;;;;8.95;37.22;101215.34;5085872;27;96779;-78
2023/03/17 06:19:06;;;;;;;7.47;3.40;;;;;;;8.76;37.44;101217.50;5085403;27;98162;-79
2023/03/17 06:21:34;;;;;;;6.45;3.03;;;;;;;8.77;37.44;101216.63;5085646;27;98129;-78
2023/03/17 06:24:01;;;;;;;13.85;4.20;;;;;;;8.86;36.95;101228.75;5084129;27;98763;-78
2023/03/17 06:26:28;;;;;;;7.30;3.25;;;;;;;8.79;37.48;101220.09;5081899;27;96657;-78
2023/03/17 06:28:54;;;;;;;8.30;3.85;;;;;;;8.83;37.46;101215.63;5090107;27;97748;-78
2023/03/17 06:31:22;;;;;;;8.65;3.85;;;;;;;9.03;36.91;101214.28;5070597;27;100952;-79
2023/03/17 06:33:49;;;;;;;8.73;3.55;;;;;;;8.99;37.07;101215.25;5074911;27;98848;-78
2023/03/17 06:36:15;;;;;;;9.98;3.67;;;;;;;8.93;37.15;101214.50;5088938;27;96821;-78
2023/03/17 06:38:44;;;;;;;10.68;4.13;;;;;;;9.14;36.99;101208.78;5086427;27;96750;-79
2023/03/17 06:41:11;;;;;;;9.52;3.55;;;;;;;9.42;36.12;101216.94;5079591;27;99434;-78
2023/03/17 06:43:38;;;;;;;9.27;3.63;;;;;;;9.18;36.40;101213.97;5086247;27;97512;-77
2023/03/17 06:46:06;;;;;;;9.40;3.60;;;;;;;9.20;36.41;101198.97;5085361;27;97591;-78
2023/03/17 06:48:32;;;;;;;7.30;3.42;;;;;;;9.17;36.56;101195.53;5085245;27;96758;-77
2023/03/17 06:50:59;;;;;;;9.10;3.60;;;;;;;9.31;36.32;101203.13;5093508;27;102183;-78
2023/03/17 06:53:26;;;;;;;6.60;3.22;;;;;;;9.19;36.65;101191.06;5078941;27;98817;-77
2023/03/17 06:55:55;;;;;;;8.02;3.10;;;;;;;9.35;36.23;101186.34;5087317;27;96740;-76
2023/03/17 06:58:21;;;;;;;11.18;3.97;;;;;;;9.31;35.78;101184.69;5075375;27;97156;-77
2023/03/17 07:00:48;;;;;;;12.23;3.70;;;;;;;9.56;36.05;101189.34;5084604;27;98880;-77
2023/03/17 07:03:15;;;;;;;11.15;4.50;;;;;;;9.64;35.12;101191.78;5082995;27;98798;-78
2023/03/17 07:05:42;;;;;;;8.05;3.33;;;;;;;9.75;35.30;101195.03;5078633;27;97248;-77
2023/03/17 07:08:10;;;;;;;9.80;3.03;;;;;;;9.56;35.51;101183.19;5083715;27;96898;-76
2023/03/17 07:10:37;;;;;;;9.07;3.67;;;;;;;9.46;35.53;101193.06;5091654;27;99206;-79
2023/03/17 07:13:06;;;;;;;11.02;4.32;;;;;;;9.44;35.35;101183.50;5079154;27;101174;-76
2023/03/17 07:15:34;;;;;;;8.45;3.85;;;;;;;9.54;35.43;101174.44;5103334;27;96815;-77
2023/03/17 07:18:01;;;;;;;10.85;3.80;;;;;;;9.52;35.40;101174.47;5086859;27;96816;-78
2023/03/17 07:20:27;;;;;;;8.65;3.83;;;;;;;9.48;35.67;101177.22;5084134;27;100339;-78
2023/03/17 07:22:53;;;;;;;13.10;3.72;;;;;;;9.63;35.52;101182.13;5076740;27;98946;-79
2023/03/17 07:25:20;;;;;;;8.55;3.40;;;;;;;9.65;34.88;101184.75;5091270;27;97128;-78
2023/03/17 07:27:46;;;;;;;9.15;3.30;;;;;;;9.93;34.26;101172.56;5081565;27;96717;-78
2023/03/17 07:30:17;;;;;;;9.80;3.45;;;;;;;10.06;34.35;101170.47;5092858;27;102120;-78
2023/03/17 07:32:44;;;;;;;9.32;3.28;;;;;;;10.36;33.68;101156.47;5093459;27;99267;-77
2023/03/17 07:35:10;;;;;;;11.88;3.53;;;;;;;10.56;33.11;101143.56;5099579;27;96744;-77
2023/03/17 07:37:37;;;;;;;9.25;3.60;;;;;;;10.71;32.99;101166.88;5089977;27;96760;-78
2023/03/17 07:40:05;;;;;;;7.95;3.97;;;;;;;10.86;32.70;101162.91;5100593;27;97515;-77
2023/03/17 07:42:37;;;;;;;7.93;3.20;;;;;;;10.80;33.00;101141.97;5085192;27;97742;-79
2023/03/17 07:45:04;;;;;;;10.18;3.85;;;;;;;10.93;32.84;101142.44;5087262;27;97267;-77
2023/03/17 07:47:32;;;;;;;7.55;3.55;;;;;;;10.61;33.22;101162.78;5080327;27;99010;-78
2023/03/17 07:49:59;;;;;;;15.30;3.80;;;;;;;10.83;32.88;101167.44;5094734;27;99315;-79
2023/03/17 07:52:25;;;;;;;6.90;3.28;;;;;;;10.83;32.55;101170.09;5085981;27;98081;-78
2023/03/17 07:54:52;;;;;;;10.52;3.42;;;;;;;10.66;33.13;101171.44;5091149;27;97653;-78
2023/03/17 07:57:19;;;;;;;9.93;3.70;;;;;;;10.79;32.84;101164.88;5074817;27;96884;-78
2023/03/17 07:59:46;;;;;;;9.77;3.40;;;;;;;10.72;33.32;101165.09;5089736;27;98942;-73
2023/03/17 08:02:15;;;;;;;6.70;3.40;;;;;;;10.82;33.08;101171.88;5081245;27;99885;-78
2023/03/17 08:04:44;;;;;;;13.30;3.55;;;;;;;10.87;32.69;101171.72;5084158;27;96722;-78
2023/03/17 08:07:11;;;;;;;10.05;3.90;;;;;;;10.87;32.88;101175.22;5098460;27;97083;-79
2023/03/17 08:09:38;;;;;;;8.05;3.55;;;;;;;10.88;32.89;101170.81;5095957;27;100032;-77
2023/03/17 08:12:07;;;;;;;7.28;3.42;;;;;;;11.49;32.44;101173.25;5099554;27;98542;-79
2023/03/17 08:14:33;;;;;;;9.15;3.53;;;;;;;11.68;31.65;101157.66;5097525;27;96738;-78
2023/03/17 08:17:00;;;;;;;12.63;3.97;;;;;;;11.69;31.97;101158.50;5097469;27;96693;-78
2023/03/17 08:19:26;;;;;;;11.13;3.70;;;;;;;11.65;31.65;101149.81;5077956;27;99683;-79
2023/03/17 08:21:54;;;;;;;9.15;4.07;;;;;;;11.21;32.53;101153.91;5089129;27;98797;-78
2023/03/17 08:24:21;;;;;;;8.88;3.78;;;;;;;11.38;32.41;101145.41;5078226;27;97613;-79
2023/03/17 08:26:48;;;;;;;9.55;3.85;;;;;;;11.49;32.42;101143.28;5094645;27;96896;-78
2023/03/17 08:29:15;;;;;;;6.28;3.42;;;;;;;11.56;32.21;101142.16;5077385;27;101109;-77
2023/03/17 08:31:42;;;;;;;11.55;3.78;;;;;;;12.13;31.69;101134.06;5089769;27;98860;-79
2023/03/17 08:34:08;;;;;;;10.57;3.63;;;;;;;11.97;31.26;101128.41;5083476;27;96866;-79
2023/03/17 08:36:35;;;;;;;7.35;3.58;;;;;;;11.95;31.34;101138.19;5083849;27;97351;-78
2023/03/17 08:39:04;;;;;;;9.23;3.20;;;;;;;12.06;31.49;101145.78;5078047;27;98105;-78
2023/03/17 08:41:31;;;;;;;9.18;3.67;;;;;;;12.19;31.50;101144.44;5099052;27;98925;-77
2023/03/17 08:43:58;;;;;;;15.85;3.97;;;;;;;12.01;31.59;101136.28;5081184;27;96635;-77
2023/03/17 08:46:27;;;;;;;9.07;3.75;;;;;;;12.35;31.08;101131.47;5092874;27;96891;-77
2023/03/17 08:48:56;;;;;;;8.68;3.13;;;;;;;12.05;31.56;101119.34;5091446;27;99992;-78
2023/03/17 08:51:24;;;;;;;8.20;3.60;;;;;;;11.97;32.01;101114.31;5095095;27;100848;-79
2023/03/17 08:53:51;;;;;;;8.35;3.30;;;;;;;11.90;31.83;101102.22;5084368;27;96741;-78
2023/03/17 08:56:19;;;;;;;9.73;4.50;;;;;;;12.08;31.65;101100.72;5097470;27;97195;-77
2023/03/17 08:58:46;;;;;;;9.25;3.80;;;;;;;11.67;32.05;101091.53;5088679;27;97823;-78
2023/03/17 09:01:14;;;;;;;7.63;3.25;;;;;;;11.55;32.65;101104.25;5093683;27;101108;-77
2023/03/17 09:03:41;;;;;;;7.55;3.85;;;;;;;11.52;32.68;101096.44;5076255;27;96839;-78
2023/03/17 09:06:10;;;;;;;7.95;3.85;;;;;;;11.94;32.78;101098.53;5081606;27;97414;-78
2023/03/17 09:08:38;;;;;;;7.05;3.35;;;;;;;12.39;31.99;101096.00;5078151;27;99034;-78
2023/03/17 09:11:05;;;;;;;9.95;3.65;;;;;;;12.16;31.97;101095.97;5077367;27;98798;-77
2023/03/17 09:13:36;;;;;;;8.60;3.35;;;;;;;12.24;31.97;101092.13;5079635;27;96780;-77
2023/03/17 09:16:02;;;;;;;7.35;3.63;;;;;;;12.28;32.00;101088.44;5075015;27;96791;-78
2023/03/17 09:18:30;;;;;;;17.42;3.70;;;;;;;12.56;31.81;101095.34;5085256;27;98907;-78
2023/03/17 09:20:56;;;;;;;12.90;3.78;;;;;;;12.77;31.48;101086.59;5079946;27;98133;-78
2023/03/17 09:23:23;;;;;;;5.75;3.38;;;;;;;12.46;31.15;101094.00;5075420;27;97302;-78
2023/03/17 09:25:51;;;;;;;13.73;4.20;;;;;;;12.57;31.77;101084.69;5077357;27;96879;-77
2023/03/17 09:28:18;;;;;;;6.97;3.50;;;;;;;13.29;31.04;101089.81;5081015;27;98886;-74
2023/03/17 09:30:46;;;;;;;17.75;4.10;;;;;;;13.57;30.44;101090.41;5077009;27;98997;-73
2023/03/17 09:33:14;;;;;;;9.80;3.80;;;;;;;13.56;30.25;101086.03;5072937;27;96772;-73
2023/03/17 09:35:41;;;;;;;9.27;3.42;;;;;;;13.97;29.75;101081.59;5074082;27;98066;-75
2023/03/17 09:38:08;;;;;;;9.65;3.90;;;;;;;13.98;29.55;101080.63;5078781;27;98942;-73
2023/03/17 09:40:39;;;;;;;10.80;3.40;;;;;;;13.89;29.61;101081.91;5078536;27;98932;-73
2023/03/17 09:43:15;;;;;;;8.90;3.78;;;;;;;13.82;29.42;101079.59;5080720;27;97566;-74
2023/03/17 09:45:44;;;;;;;8.20;3.20;;;;;;;13.60;29.31;101084.94;5077660;27;96921;-76
2023/03/17 09:48:32;;;;;;;7.65;3.10;;;;;;;13.38;29.63;101085.00;5087102;27;97260;-79
2023/03/17 09:51:03;;;;;;;6.55;3.20;;;;;;;13.56;29.41;101072.75;5076953;27;101037;-79
2023/03/17 09:53:34;;;;;;;6.82;2.80;;;;;;;14.10;28.97;101073.94;5078886;27;96962;-73
2023/03/17 09:56:06;;;;;;;5.88;3.33;;;;;;;14.12;28.47;101075.56;5082773;27;96858;-74
2023/03/17 09:58:34;;;;;;;5.18;2.90;;;;;;;14.08;28.66;101086.41;5072417;27;98891;-73
2023/03/17 10:01:04;;;;;;;6.55;3.22;;;;;;;13.94;29.15;101074.59;5082504;27;99661;-74
2023/03/17 10:03:33;;;;;;;9.35;2.78;;;;;;;14.23;28.12;101070.66;5076725;27;96937;-75
2023/03/17 10:06:17;;;;;;;8.63;3.33;;;;;;;14.04;28.66;101053.81;5078637;27;96850;-78
2023/03/17 10:08:51;;;;;;;10.07;3.10;;;;;;;13.80;28.97;101058.41;5081880;27;99606;-78
2023/03/17 10:11:28;;;;;;;7.68;3.53;;;;;;;14.00;29.04;101056.66;5076272;27;97647;-77
2023/03/17 10:14:00;;;;;;;7.93;3.40;;;;;;;14.25;29.27;101066.09;5078441;27;96822;-79
2023/03/17 10:16:40;;;;;;;6.20;3.15;;;;;;;14.31;28.40;101067.63;5082652;27;96754;-79
2023/03/17 10:19:21;;;;;;;6.93;2.60;;;;;;;14.24;28.47;101082.16;5085422;27;98858;-78
2023/03/17 10:21:52;;;;;;;13.95;4.20;;;;;;;14.00;29.12;101072.59;5077632;27;100396;-73
2023/03/17 10:24:20;;;;;;;5.78;3.03;;;;;;;14.35;28.89;101070.09;5074743;27;97422;-78
2023/03/17 10:26:50;;;;;;;7.45;3.00;;;;;;;14.57;28.23;101072.63;5085803;27;97050;-79
2023/03/17 10:29:20;;;;;;;6.78;2.90;;;;;;;14.86;28.00;101075.72;5075185;27;98924;-78
2023/03/17 10:31:47;;;;;;;7.93;3.20;;;;;;;14.85;28.17;101072.19;5078956;27;100913;-73
2023/03/17 10:34:17;;;;;;;5.00;2.85;;;;;;;14.72;28.07;101065.72;5075530;27;97247;-73
2023/03/17 10:36:46;;;;;;;17.20;3.30;;;;;;;14.97;28.15;101060.09;5081988;27;97187;-73
2023/03/17 10:39:15;;;;;;;6.10;3.25;;;;;;;15.22;28.06;101051.78;5078369;27;99392;-74
2023/03/17 10:41:51;;;;;;;8.73;3.60;;;;;;;15.41;27.66;101048.13;5072004;27;98813;-74
2023/03/17 10:44:23;;;;;;;7.75;2.90;;;;;;;15.17;27.87;101065.31;5072209;27;96829;-75
2023/03/17 10:46:54;;;;;;;9.27;3.50;;;;;;;15.56;28.11;101046.50;5072641;27;96778;-74
2023/03/17 10:49:23;;;;;;;5.25;2.78;;;;;;;15.54;27.94;101045.72;5075689;27;98902;-73
2023/03/17 10:51:52;;;;;;;5.43;3.22;;;;;;;15.84;27.18;101040.59;5079782;27;100526;-74
2023/03/17 10:54:20;;;;;;;7.38;2.80;;;;;;;15.88;26.90;101040.34;5074279;27;97282;-74
2023/03/17 10:56:50;;;;;;;6.82;3.08;;;;;;;15.86;27.36;101052.03;5078303;27;96964;-73
2023/03/17 10:59:19;;;;;;;5.45;3.20;;;;;;;15.91;27.53;101028.69;5071966;27;98862;-73
2023/03/17 11:01:52;;;;;;;7.43;3.15;;;;;;;16.22;27.17;101031.41;5077129;27;97714;-73
2023/03/17 11:04:26;;;;;;;7.10;2.78;;;;;;;16.18;27.04;101032.53;5075384;27;97182;-74
2023/03/17 11:06:55;;;;;;;5.22;2.92;;;;;;;16.29;26.94;101029.28;5071553;27;96861;-74
2023/03/17 11:09:22;;;;;;;4.95;2.47;;;;;;;16.33;26.76;101023.72;5073411;27;98995;-73
2023/03/17 11:11:58;;;;;;;7.43;2.72;;;;;;;16.27;26.85;101008.06;5075458;27;98921;-75
2023/03/17 11:14:27;;;;;;;7.20;2.92;;;;;;;16.24;27.42;101020.66;5072970;27;97821;-74
2023/03/17 11:16:55;;;;;;;5.55;2.83;;;;;;;16.30;27.54;101015.88;5077525;27;97161;-74
2023/03/17 11:19:31;;;;;;;7.97;2.90;;;;;;;16.30;27.02;101004.34;5077646;27;98889;-75
2023/03/17 11:22:05;;;;;;;6.15;2.78;;;;;;;16.56;26.99;101013.56;5076655;27;100192;-74
2023/03/17 11:24:35;;;;;;;9.18;3.13;;;;;;;16.29;27.15;101011.47;5076374;27;96846;-76
2023/03/17 11:27:12;;;;;;;10.40;3.00;;;;;;;16.27;27.19;101009.84;5076914;27;96727;-74
2023/03/17 11:29:54;;;;;;;6.35;2.83;;;;;;;16.48;27.24;101003.31;5075490;27;97898;-75
2023/03/17 11:32:28;;;;;;;6.97;2.78;;;;;;;16.57;26.67;101000.13;5070029;27;99450;-74